sensor_id;sensor_type;location;lat;lon;timestamp;P1;durP1;ratioP1;P2;durP2;ratioP2
40753;SDS011;26460;42.732;-84.532;2024-03-02T00:00:42;118.38;;;85.05;;
40753;SDS011;26460;42.732;-84.532;2024-03-02T00:03:08;112.22;;;80.80;;
40753;SDS011;26460;42.732;-84.532;2024-03-02T00:05:35;108.03;;;78.53;;
40753;SDS011;26460;42.732;-84.532;2024-03-02T00:08:02;112.50;;;81.18;;
40753;SDS011;26460;42.732;-84.532;2024-03-02T00:10:35;106.18;;;76.28;;
40753;SDS011;26460;42.732;-84.532;2024-03-02T00:13:06;103.22;;;71.97;;
40753;SDS011;26460;42.732;-84.532;2024-03-02T00:18:07;83.03;;;59.35;;
40753;SDS011;26460;42.732;-84.532;2024-03-02T00:20:36;84.03;;;60.05;;
40753;SDS011;26460;42.732;-84.532;2024-03-02T00:23:03;77.22;;;57.35;;
40753;SDS011;26460;42.732;-84.532;2024-03-02T00:25:51;88.80;;;62.28;;
40753;SDS011;26460;42.732;-84.532;2024-03-02T00:33:21;73.65;;;52.80;;
40753;SDS011;26460;42.732;-84.532;2024-03-02T00:35:48;74.10;;;54.10;;
40753;SDS011;26460;42.732;-84.532;2024-03-02T00:38:15;73.13;;;54.55;;
40753;SDS011;26460;42.732;-84.532;2024-03-02T00:40:42;76.70;;;57.90;;
40753;SDS011;26460;42.732;-84.532;2024-03-02T00:46:07;76.53;;;56.03;;
40753;SDS011;26460;42.732;-84.532;2024-03-02T00:48:34;73.25;;;58.15;;
40753;SDS011;26460;42.732;-84.532;2024-03-02T00:51:02;69.90;;;56.55;;
40753;SDS011;26460;42.732;-84.532;2024-03-02T00:53:29;67.80;;;55.15;;
40753;SDS011;26460;42.732;-84.532;2024-03-02T00:55:58;74.25;;;57.65;;
40753;SDS011;26460;42.732;-84.532;2024-03-02T00:58:25;71.63;;;56.78;;
40753;SDS011;26460;42.732;-84.532;2024-03-02T01:00:52;76.32;;;57.15;;
40753;SDS011;26460;42.732;-84.532;2024-03-02T01:03:18;69.20;;;55.63;;
40753;SDS011;26460;42.732;-84.532;2024-03-02T01:05:45;68.13;;;56.33;;
40753;SDS011;26460;42.732;-84.532;2024-03-02T01:08:11;64.43;;;51.67;;
40753;SDS011;26460;42.732;-84.532;2024-03-02T01:10:38;67.07;;;52.85;;
40753;SDS011;26460;42.732;-84.532;2024-03-02T01:13:04;66.65;;;54.25;;
40753;SDS011;26460;42.732;-84.532;2024-03-02T01:15:31;61.28;;;52.47;;
40753;SDS011;26460;42.732;-84.532;2024-03-02T01:17:59;60.78;;;51.53;;
40753;SDS011;26460;42.732;-84.532;2024-03-02T01:20:25;63.08;;;51.95;;
40753;SDS011;26460;42.732;-84.532;2024-03-02T01:22:52;55.00;;;47.83;;
40753;SDS011;26460;42.732;-84.532;2024-03-02T01:25:19;58.30;;;48.05;;
40753;SDS011;26460;42.732;-84.532;2024-03-02T01:27:46;55.25;;;46.03;;
40753;SDS011;26460;42.732;-84.532;2024-03-02T01:30:12;56.47;;;46.65;;
40753;SDS011;26460;42.732;-84.532;2024-03-02T01:32:39;54.92;;;45.38;;
40753;SDS011;26460;42.732;-84.532;2024-03-02T01:35:05;51.08;;;43.65;;
40753;SDS011;26460;42.732;-84.532;2024-03-02T01:37:33;50.95;;;42.63;;
40753;SDS011;26460;42.732;-84.532;2024-03-02T01:40:00;45.63;;;39.47;;
40753;SDS011;26460;42.732;-84.532;2024-03-02T01:42:28;47.42;;;41.67;;
40753;SDS011;26460;42.732;-84.532;2024-03-02T01:44:56;47.33;;;39.20;;
40753;SDS011;26460;42.732;-84.532;2024-03-02T01:47:22;42.38;;;37.55;;
40753;SDS011;26460;42.732;-84.532;2024-03-02T01:49:49;47.80;;;39.40;;
40753;SDS011;26460;42.732;-84.532;2024-03-02T01:52:16;42.35;;;37.65;;
40753;SDS011;26460;42.732;-84.532;2024-03-02T01:54:42;44.53;;;36.47;;
40753;SDS011;26460;42.732;-84.532;2024-03-02T01:57:09;39.80;;;34.67;;
40753;SDS011;26460;42.732;-84.532;2024-03-02T01:59:36;38.67;;;32.33;;
40753;SDS011;26460;42.732;-84.532;2024-03-02T02:02:03;39.25;;;33.22;;
40753;SDS011;26460;42.732;-84.532;2024-03-02T02:04:30;38.63;;;31.88;;
40753;SDS011;26460;42.732;-84.532;2024-03-02T02:06:56;40.33;;;30.52;;
40753;SDS011;26460;42.732;-84.532;2024-03-02T02:09:23;38.53;;;30.73;;
40753;SDS011;26460;42.732;-84.532;2024-03-02T02:11:50;35.10;;;29.73;;
40753;SDS011;26460;42.732;-84.532;2024-03-02T02:14:17;35.08;;;29.42;;
40753;SDS011;26460;42.732;-84.532;2024-03-02T02:16:44;30.63;;;27.33;;
40753;SDS011;26460;42.732;-84.532;2024-03-02T02:19:11;32.45;;;26.88;;
40753;SDS011;26460;42.732;-84.532;2024-03-02T02:21:38;29.15;;;25.02;;
40753;SDS011;26460;42.732;-84.532;2024-03-02T02:24:08;27.13;;;24.00;;
40753;SDS011;26460;42.732;-84.532;2024-03-02T02:26:35;26.25;;;23.45;;
40753;SDS011;26460;42.732;-84.532;2024-03-02T02:29:02;25.85;;;22.85;;
40753;SDS011;26460;42.732;-84.532;2024-03-02T02:31:36;24.33;;;21.45;;
40753;SDS011;26460;42.732;-84.532;2024-03-02T02:34:06;22.35;;;19.80;;
40753;SDS011;26460;42.732;-84.532;2024-03-02T02:36:36;22.73;;;19.88;;
40753;SDS011;26460;42.732;-84.532;2024-03-02T02:39:05;22.90;;;18.90;;
40753;SDS011;26460;42.732;-84.532;2024-03-02T02:41:34;21.48;;;18.83;;
40753;SDS011;26460;42.732;-84.532;2024-03-02T02:44:00;20.42;;;18.23;;
40753;SDS011;26460;42.732;-84.532;2024-03-02T02:46:27;20.10;;;16.77;;
40753;SDS011;26460;42.732;-84.532;2024-03-02T02:48:53;21.02;;;16.13;;
40753;SDS011;26460;42.732;-84.532;2024-03-02T02:51:20;21.42;;;15.73;;
40753;SDS011;26460;42.732;-84.532;2024-03-02T02:53:47;17.35;;;15.55;;
40753;SDS011;26460;42.732;-84.532;2024-03-02T02:56:13;18.25;;;14.90;;
40753;SDS011;26460;42.732;-84.532;2024-03-02T02:58:40;15.38;;;13.32;;
40753;SDS011;26460;42.732;-84.532;2024-03-02T03:01:07;15.82;;;13.27;;
40753;SDS011;26460;42.732;-84.532;2024-03-02T03:03:34;15.82;;;12.77;;
40753;SDS011;26460;42.732;-84.532;2024-03-02T03:06:00;14.43;;;12.43;;
40753;SDS011;26460;42.732;-84.532;2024-03-02T03:08:27;12.98;;;11.45;;
40753;SDS011;26460;42.732;-84.532;2024-03-02T03:10:54;14.55;;;12.27;;
40753;SDS011;26460;42.732;-84.532;2024-03-02T03:13:21;11.75;;;10.48;;
40753;SDS011;26460;42.732;-84.532;2024-03-02T03:15:48;12.75;;;10.52;;
40753;SDS011;26460;42.732;-84.532;2024-03-02T03:18:15;11.40;;;10.20;;
40753;SDS011;26460;42.732;-84.532;2024-03-02T03:20:41;10.60;;;9.50;;
40753;SDS011;26460;42.732;-84.532;2024-03-02T03:23:08;10.15;;;9.02;;
40753;SDS011;26460;42.732;-84.532;2024-03-02T03:25:34;10.38;;;8.95;;
40753;SDS011;26460;42.732;-84.532;2024-03-02T03:28:01;9.48;;;8.43;;
40753;SDS011;26460;42.732;-84.532;2024-03-02T03:30:27;8.70;;;7.82;;
40753;SDS011;26460;42.732;-84.532;2024-03-02T03:32:54;9.07;;;7.80;;
40753;SDS011;26460;42.732;-84.532;2024-03-02T03:35:21;8.77;;;7.93;;
40753;SDS011;26460;42.732;-84.532;2024-03-02T03:37:48;8.60;;;7.70;;
40753;SDS011;26460;42.732;-84.532;2024-03-02T03:40:15;7.68;;;6.97;;
40753;SDS011;26460;42.732;-84.532;2024-03-02T03:42:41;7.95;;;7.15;;
40753;SDS011;26460;42.732;-84.532;2024-03-02T03:45:08;7.10;;;6.07;;
40753;SDS011;26460;42.732;-84.532;2024-03-02T03:47:35;7.20;;;6.50;;
40753;SDS011;26460;42.732;-84.532;2024-03-02T03:50:01;6.43;;;5.82;;
40753;SDS011;26460;42.732;-84.532;2024-03-02T03:52:31;6.70;;;6.00;;
40753;SDS011;26460;42.732;-84.532;2024-03-02T03:54:57;6.72;;;5.68;;
40753;SDS011;26460;42.732;-84.532;2024-03-02T03:57:24;5.75;;;5.25;;
40753;SDS011;26460;42.732;-84.532;2024-03-02T03:59:51;5.90;;;5.18;;
40753;SDS011;26460;42.732;-84.532;2024-03-02T04:02:18;6.20;;;4.93;;
40753;SDS011;26460;42.732;-84.532;2024-03-02T04:04:45;5.38;;;4.88;;
40753;SDS011;26460;42.732;-84.532;2024-03-02T04:07:12;5.28;;;4.78;;
40753;SDS011;26460;42.732;-84.532;2024-03-02T04:09:38;4.95;;;3.97;;
40753;SDS011;26460;42.732;-84.532;2024-03-02T04:12:05;4.90;;;4.50;;
40753;SDS011;26460;42.732;-84.532;2024-03-02T04:14:32;4.47;;;4.07;;
40753;SDS011;26460;42.732;-84.532;2024-03-02T04:16:58;4.43;;;4.03;;
40753;SDS011;26460;42.732;-84.532;2024-03-02T04:19:25;4.20;;;3.85;;
40753;SDS011;26460;42.732;-84.532;2024-03-02T04:21:51;3.90;;;3.60;;
40753;SDS011;26460;42.732;-84.532;2024-03-02T04:24:18;5.25;;;3.85;;
40753;SDS011;26460;42.732;-84.532;2024-03-02T04:26:44;3.50;;;3.20;;
40753;SDS011;26460;42.732;-84.532;2024-03-02T04:29:11;3.97;;;3.55;;
40753;SDS011;26460;42.732;-84.532;2024-03-02T04:31:37;3.30;;;3.03;;
40753;SDS011;26460;42.732;-84.532;2024-03-02T04:34:04;3.00;;;2.65;;
40753;SDS011;26460;42.732;-84.532;2024-03-02T04:36:30;3.13;;;2.92;;
40753;SDS011;26460;42.732;-84.532;2024-03-02T04:38:57;3.53;;;3.22;;
40753;SDS011;26460;42.732;-84.532;2024-03-02T04:41:23;2.88;;;2.63;;
40753;SDS011;26460;42.732;-84.532;2024-03-02T04:43:50;3.10;;;2.60;;
40753;SDS011;26460;42.732;-84.532;2024-03-02T04:46:16;2.70;;;2.50;;
40753;SDS011;26460;42.732;-84.532;2024-03-02T04:48:43;2.58;;;2.38;;
40753;SDS011;26460;42.732;-84.532;2024-03-02T04:51:10;2.60;;;2.40;;
40753;SDS011;26460;42.732;-84.532;2024-03-02T04:53:36;2.67;;;2.47;;
40753;SDS011;26460;42.732;-84.532;2024-03-02T04:56:04;3.50;;;2.38;;
40753;SDS011;26460;42.732;-84.532;2024-03-02T04:58:48;2.35;;;2.13;;
40753;SDS011;26460;42.732;-84.532;2024-03-02T05:01:15;2.90;;;2.60;;
40753;SDS011;26460;42.732;-84.532;2024-03-02T05:03:43;2.63;;;2.20;;
40753;SDS011;26460;42.732;-84.532;2024-03-02T05:06:09;2.20;;;2.00;;
40753;SDS011;26460;42.732;-84.532;2024-03-02T05:08:45;2.58;;;2.08;;
40753;SDS011;26460;42.732;-84.532;2024-03-02T05:11:13;3.03;;;2.08;;
40753;SDS011;26460;42.732;-84.532;2024-03-02T05:14:14;2.42;;;1.90;;
40753;SDS011;26460;42.732;-84.532;2024-03-02T05:16:40;2.20;;;1.70;;
40753;SDS011;26460;42.732;-84.532;2024-03-02T05:19:07;1.95;;;1.80;;
40753;SDS011;26460;42.732;-84.532;2024-03-02T05:21:34;1.92;;;1.60;;
40753;SDS011;26460;42.732;-84.532;2024-03-02T05:24:01;2.35;;;1.98;;
40753;SDS011;26460;42.732;-84.532;2024-03-02T05:26:28;2.38;;;1.55;;
40753;SDS011;26460;42.732;-84.532;2024-03-02T05:28:54;1.95;;;1.70;;
40753;SDS011;26460;42.732;-84.532;2024-03-02T05:31:21;1.67;;;1.58;;
40753;SDS011;26460;42.732;-84.532;2024-03-02T05:33:47;2.00;;;1.60;;
40753;SDS011;26460;42.732;-84.532;2024-03-02T05:36:14;1.67;;;1.58;;
40753;SDS011;26460;42.732;-84.532;2024-03-02T05:38:41;1.67;;;1.58;;
40753;SDS011;26460;42.732;-84.532;2024-03-02T05:41:08;1.67;;;1.55;;
40753;SDS011;26460;42.732;-84.532;2024-03-02T05:43:34;1.85;;;1.48;;
40753;SDS011;26460;42.732;-84.532;2024-03-02T05:46:02;1.50;;;1.40;;
40753;SDS011;26460;42.732;-84.532;2024-03-02T05:48:28;2.67;;;1.40;;
40753;SDS011;26460;42.732;-84.532;2024-03-02T05:50:55;2.00;;;1.30;;
40753;SDS011;26460;42.732;-84.532;2024-03-02T05:53:22;1.60;;;1.50;;
40753;SDS011;26460;42.732;-84.532;2024-03-02T05:55:48;2.13;;;1.60;;
40753;SDS011;26460;42.732;-84.532;2024-03-02T05:58:20;1.75;;;1.23;;
40753;SDS011;26460;42.732;-84.532;2024-03-02T06:01:17;1.40;;;1.30;;
40753;SDS011;26460;42.732;-84.532;2024-03-02T06:03:44;1.40;;;1.25;;
40753;SDS011;26460;42.732;-84.532;2024-03-02T06:06:10;1.08;;;0.98;;
40753;SDS011;26460;42.732;-84.532;2024-03-02T06:08:37;2.72;;;1.33;;
40753;SDS011;26460;42.732;-84.532;2024-03-02T06:11:04;1.70;;;1.23;;
40753;SDS011;26460;42.732;-84.532;2024-03-02T06:13:30;1.98;;;1.15;;
40753;SDS011;26460;42.732;-84.532;2024-03-02T06:15:57;1.27;;;1.17;;
40753;SDS011;26460;42.732;-84.532;2024-03-02T06:18:24;1.13;;;1.02;;
40753;SDS011;26460;42.732;-84.532;2024-03-02T06:20:50;1.45;;;1.08;;
40753;SDS011;26460;42.732;-84.532;2024-03-02T06:23:17;2.05;;;1.30;;
40753;SDS011;26460;42.732;-84.532;2024-03-02T06:25:43;1.17;;;0.90;;
40753;SDS011;26460;42.732;-84.532;2024-03-02T06:28:10;1.20;;;1.10;;
40753;SDS011;26460;42.732;-84.532;2024-03-02T06:30:36;1.52;;;1.13;;
40753;SDS011;26460;42.732;-84.532;2024-03-02T06:33:03;0.98;;;0.93;;
40753;SDS011;26460;42.732;-84.532;2024-03-02T06:35:31;1.88;;;1.10;;
40753;SDS011;26460;42.732;-84.532;2024-03-02T06:37:58;1.40;;;1.27;;
40753;SDS011;26460;42.732;-84.532;2024-03-02T06:40:24;1.23;;;0.98;;
40753;SDS011;26460;42.732;-84.532;2024-03-02T06:42:51;1.48;;;1.10;;
40753;SDS011;26460;42.732;-84.532;2024-03-02T06:45:17;1.02;;;0.88;;
40753;SDS011;26460;42.732;-84.532;2024-03-02T06:47:44;1.17;;;1.05;;
40753;SDS011;26460;42.732;-84.532;2024-03-02T06:50:11;1.73;;;0.90;;
40753;SDS011;26460;42.732;-84.532;2024-03-02T06:52:38;2.20;;;1.20;;
40753;SDS011;26460;42.732;-84.532;2024-03-02T06:55:04;1.67;;;1.17;;
40753;SDS011;26460;42.732;-84.532;2024-03-02T06:57:31;1.00;;;0.90;;
40753;SDS011;26460;42.732;-84.532;2024-03-02T06:59:58;1.25;;;1.15;;
40753;SDS011;26460;42.732;-84.532;2024-03-02T07:02:25;1.60;;;1.10;;
40753;SDS011;26460;42.732;-84.532;2024-03-02T07:04:55;1.50;;;1.10;;
40753;SDS011;26460;42.732;-84.532;2024-03-02T07:07:22;1.33;;;1.00;;
40753;SDS011;26460;42.732;-84.532;2024-03-02T07:09:48;1.10;;;1.00;;
40753;SDS011;26460;42.732;-84.532;2024-03-02T07:12:15;2.08;;;1.30;;
40753;SDS011;26460;42.732;-84.532;2024-03-02T07:14:42;0.98;;;0.98;;
40753;SDS011;26460;42.732;-84.532;2024-03-02T07:17:26;1.00;;;1.00;;
40753;SDS011;26460;42.732;-84.532;2024-03-02T07:19:53;1.25;;;1.10;;
40753;SDS011;26460;42.732;-84.532;2024-03-02T07:22:20;1.25;;;0.88;;
40753;SDS011;26460;42.732;-84.532;2024-03-02T07:24:46;1.27;;;1.00;;
40753;SDS011;26460;42.732;-84.532;2024-03-02T07:27:13;0.85;;;0.80;;
40753;SDS011;26460;42.732;-84.532;2024-03-02T07:29:40;1.15;;;0.88;;
40753;SDS011;26460;42.732;-84.532;2024-03-02T07:32:07;1.15;;;0.98;;
40753;SDS011;26460;42.732;-84.532;2024-03-02T07:34:35;1.20;;;0.93;;
40753;SDS011;26460;42.732;-84.532;2024-03-02T07:37:03;1.33;;;1.00;;
40753;SDS011;26460;42.732;-84.532;2024-03-02T07:39:30;1.35;;;1.00;;
40753;SDS011;26460;42.732;-84.532;2024-03-02T07:41:56;1.85;;;1.30;;
40753;SDS011;26460;42.732;-84.532;2024-03-02T07:44:23;1.42;;;1.23;;
40753;SDS011;26460;42.732;-84.532;2024-03-02T07:46:50;1.50;;;1.40;;
40753;SDS011;26460;42.732;-84.532;2024-03-02T07:49:20;1.25;;;1.02;;
40753;SDS011;26460;42.732;-84.532;2024-03-02T07:51:47;1.15;;;1.05;;
40753;SDS011;26460;42.732;-84.532;2024-03-02T07:54:13;2.47;;;1.40;;
40753;SDS011;26460;42.732;-84.532;2024-03-02T07:56:40;1.10;;;1.00;;
40753;SDS011;26460;42.732;-84.532;2024-03-02T07:59:06;1.20;;;1.10;;
40753;SDS011;26460;42.732;-84.532;2024-03-02T08:01:33;1.35;;;1.25;;
40753;SDS011;26460;42.732;-84.532;2024-03-02T08:04:00;1.27;;;1.10;;
40753;SDS011;26460;42.732;-84.532;2024-03-02T08:06:29;1.58;;;0.98;;
40753;SDS011;26460;42.732;-84.532;2024-03-02T08:08:56;1.17;;;1.05;;
40753;SDS011;26460;42.732;-84.532;2024-03-02T08:11:24;1.70;;;1.30;;
40753;SDS011;26460;42.732;-84.532;2024-03-02T08:13:51;1.85;;;1.48;;
40753;SDS011;26460;42.732;-84.532;2024-03-02T08:16:21;1.70;;;1.13;;
40753;SDS011;26460;42.732;-84.532;2024-03-02T08:18:49;1.52;;;1.00;;
40753;SDS011;26460;42.732;-84.532;2024-03-02T08:21:15;1.30;;;1.05;;
40753;SDS011;26460;42.732;-84.532;2024-03-02T08:23:42;0.90;;;0.80;;
40753;SDS011;26460;42.732;-84.532;2024-03-02T08:26:09;1.80;;;1.20;;
40753;SDS011;26460;42.732;-84.532;2024-03-02T08:28:36;1.77;;;1.00;;
40753;SDS011;26460;42.732;-84.532;2024-03-02T08:31:03;1.40;;;1.30;;
40753;SDS011;26460;42.732;-84.532;2024-03-02T08:33:30;1.95;;;0.95;;
40753;SDS011;26460;42.732;-84.532;2024-03-02T08:35:56;1.42;;;1.10;;
40753;SDS011;26460;42.732;-84.532;2024-03-02T08:38:23;1.80;;;1.20;;
40753;SDS011;26460;42.732;-84.532;2024-03-02T08:40:50;1.50;;;1.10;;
40753;SDS011;26460;42.732;-84.532;2024-03-02T08:43:17;1.40;;;1.02;;
40753;SDS011;26460;42.732;-84.532;2024-03-02T08:45:44;1.15;;;1.05;;
40753;SDS011;26460;42.732;-84.532;2024-03-02T08:48:11;1.98;;;1.50;;
40753;SDS011;26460;42.732;-84.532;2024-03-02T08:50:37;1.35;;;0.93;;
40753;SDS011;26460;42.732;-84.532;2024-03-02T08:53:04;3.42;;;1.38;;
40753;SDS011;26460;42.732;-84.532;2024-03-02T08:55:31;2.58;;;1.35;;
40753;SDS011;26460;42.732;-84.532;2024-03-02T08:57:57;1.83;;;1.27;;
40753;SDS011;26460;42.732;-84.532;2024-03-02T09:00:24;1.30;;;1.08;;
40753;SDS011;26460;42.732;-84.532;2024-03-02T09:02:51;2.80;;;1.25;;
40753;SDS011;26460;42.732;-84.532;2024-03-02T09:05:17;1.75;;;1.13;;
40753;SDS011;26460;42.732;-84.532;2024-03-02T09:07:44;1.92;;;1.33;;
40753;SDS011;26460;42.732;-84.532;2024-03-02T09:10:10;1.58;;;1.15;;
40753;SDS011;26460;42.732;-84.532;2024-03-02T09:12:38;2.42;;;1.42;;
40753;SDS011;26460;42.732;-84.532;2024-03-02T09:15:05;1.40;;;1.10;;
40753;SDS011;26460;42.732;-84.532;2024-03-02T09:17:32;1.48;;;1.17;;
40753;SDS011;26460;42.732;-84.532;2024-03-02T09:19:59;3.20;;;1.30;;
40753;SDS011;26460;42.732;-84.532;2024-03-02T09:22:25;2.50;;;1.40;;
40753;SDS011;26460;42.732;-84.532;2024-03-02T09:24:52;2.33;;;1.70;;
40753;SDS011;26460;42.732;-84.532;2024-03-02T09:27:19;1.63;;;1.23;;
40753;SDS011;26460;42.732;-84.532;2024-03-02T09:29:45;1.98;;;1.25;;
40753;SDS011;26460;42.732;-84.532;2024-03-02T09:32:12;1.85;;;1.08;;
40753;SDS011;26460;42.732;-84.532;2024-03-02T09:34:40;1.25;;;1.15;;
40753;SDS011;26460;42.732;-84.532;2024-03-02T09:37:07;1.13;;;1.02;;
40753;SDS011;26460;42.732;-84.532;2024-03-02T09:39:33;1.45;;;1.30;;
40753;SDS011;26460;42.732;-84.532;2024-03-02T09:42:00;1.77;;;1.27;;
40753;SDS011;26460;42.732;-84.532;2024-03-02T09:44:27;1.98;;;1.30;;
40753;SDS011;26460;42.732;-84.532;2024-03-02T09:46:54;1.40;;;1.10;;
40753;SDS011;26460;42.732;-84.532;2024-03-02T09:49:20;1.30;;;1.20;;
40753;SDS011;26460;42.732;-84.532;2024-03-02T09:51:47;1.30;;;1.15;;
40753;SDS011;26460;42.732;-84.532;2024-03-02T09:54:17;1.42;;;1.23;;
40753;SDS011;26460;42.732;-84.532;2024-03-02T09:56:44;1.88;;;1.25;;
40753;SDS011;26460;42.732;-84.532;2024-03-02T09:59:11;1.27;;;1.17;;
40753;SDS011;26460;42.732;-84.532;2024-03-02T10:01:39;1.98;;;1.33;;
40753;SDS011;26460;42.732;-84.532;2024-03-02T10:04:05;3.80;;;1.23;;
40753;SDS011;26460;42.732;-84.532;2024-03-02T10:06:32;1.88;;;1.38;;
40753;SDS011;26460;42.732;-84.532;2024-03-02T10:08:58;2.00;;;1.45;;
40753;SDS011;26460;42.732;-84.532;2024-03-02T10:11:26;1.42;;;1.33;;
40753;SDS011;26460;42.732;-84.532;2024-03-02T10:14:09;2.28;;;1.30;;
40753;SDS011;26460;42.732;-84.532;2024-03-02T10:16:38;1.58;;;1.33;;
40753;SDS011;26460;42.732;-84.532;2024-03-02T10:21:42;2.25;;;1.40;;
40753;SDS011;26460;42.732;-84.532;2024-03-02T10:24:10;1.30;;;1.20;;
40753;SDS011;26460;42.732;-84.532;2024-03-02T10:26:36;1.45;;;1.35;;
40753;SDS011;26460;42.732;-84.532;2024-03-02T10:29:03;1.60;;;1.38;;
40753;SDS011;26460;42.732;-84.532;2024-03-02T10:31:30;3.42;;;1.52;;
40753;SDS011;26460;42.732;-84.532;2024-03-02T10:33:59;1.85;;;1.58;;
40753;SDS011;26460;42.732;-84.532;2024-03-02T10:36:28;1.52;;;1.13;;
40753;SDS011;26460;42.732;-84.532;2024-03-02T10:38:57;1.40;;;1.20;;
40753;SDS011;26460;42.732;-84.532;2024-03-02T10:41:26;1.33;;;1.23;;
40753;SDS011;26460;42.732;-84.532;2024-03-02T10:43:53;1.30;;;1.20;;
40753;SDS011;26460;42.732;-84.532;2024-03-02T10:46:28;1.67;;;1.30;;
40753;SDS011;26460;42.732;-84.532;2024-03-02T10:48:56;1.85;;;1.30;;
40753;SDS011;26460;42.732;-84.532;2024-03-02T10:51:27;1.83;;;1.40;;
40753;SDS011;26460;42.732;-84.532;2024-03-02T10:54:00;2.35;;;1.23;;
40753;SDS011;26460;42.732;-84.532;2024-03-02T10:56:28;1.95;;;1.60;;
40753;SDS011;26460;42.732;-84.532;2024-03-02T11:01:56;2.13;;;1.33;;
40753;SDS011;26460;42.732;-84.532;2024-03-02T11:04:25;2.08;;;1.10;;
40753;SDS011;26460;42.732;-84.532;2024-03-02T11:06:59;1.55;;;1.20;;
40753;SDS011;26460;42.732;-84.532;2024-03-02T11:09:35;2.25;;;1.45;;
40753;SDS011;26460;42.732;-84.532;2024-03-02T11:12:22;3.38;;;1.25;;
40753;SDS011;26460;42.732;-84.532;2024-03-02T11:14:52;1.95;;;1.20;;
40753;SDS011;26460;42.732;-84.532;2024-03-02T11:17:21;2.40;;;1.40;;
40753;SDS011;26460;42.732;-84.532;2024-03-02T11:19:49;1.42;;;1.30;;
40753;SDS011;26460;42.732;-84.532;2024-03-02T11:22:16;1.77;;;1.20;;
40753;SDS011;26460;42.732;-84.532;2024-03-02T11:24:49;2.20;;;1.73;;
40753;SDS011;26460;42.732;-84.532;2024-03-02T11:32:58;2.03;;;1.58;;
40753;SDS011;26460;42.732;-84.532;2024-03-02T11:35:25;2.17;;;1.58;;
40753;SDS011;26460;42.732;-84.532;2024-03-02T11:37:54;2.47;;;1.50;;
40753;SDS011;26460;42.732;-84.532;2024-03-02T11:40:26;2.67;;;1.42;;
40753;SDS011;26460;42.732;-84.532;2024-03-02T11:42:54;1.63;;;1.10;;
40753;SDS011;26460;42.732;-84.532;2024-03-02T11:45:24;2.10;;;1.38;;
40753;SDS011;26460;42.732;-84.532;2024-03-02T11:47:52;1.85;;;1.33;;
40753;SDS011;26460;42.732;-84.532;2024-03-02T11:50:30;1.92;;;1.45;;
40753;SDS011;26460;42.732;-84.532;2024-03-02T11:52:59;2.08;;;1.52;;
40753;SDS011;26460;42.732;-84.532;2024-03-02T11:55:26;1.73;;;1.55;;
40753;SDS011;26460;42.732;-84.532;2024-03-02T11:57:54;1.40;;;1.30;;
40753;SDS011;26460;42.732;-84.532;2024-03-02T12:00:21;1.83;;;1.33;;
40753;SDS011;26460;42.732;-84.532;2024-03-02T12:02:59;2.58;;;1.25;;
40753;SDS011;26460;42.732;-84.532;2024-03-02T12:05:27;2.40;;;1.60;;
40753;SDS011;26460;42.732;-84.532;2024-03-02T12:07:57;2.10;;;1.38;;
40753;SDS011;26460;42.732;-84.532;2024-03-02T12:10:25;2.05;;;1.42;;
40753;SDS011;26460;42.732;-84.532;2024-03-02T12:12:59;3.10;;;1.30;;
40753;SDS011;26460;42.732;-84.532;2024-03-02T12:15:27;1.67;;;1.50;;
40753;SDS011;26460;42.732;-84.532;2024-03-02T12:17:58;1.60;;;1.50;;
40753;SDS011;26460;42.732;-84.532;2024-03-02T12:20:26;2.08;;;1.50;;
40753;SDS011;26460;42.732;-84.532;2024-03-02T12:22:56;1.60;;;1.40;;
40753;SDS011;26460;42.732;-84.532;2024-03-02T12:25:25;1.48;;;1.38;;
40753;SDS011;26460;42.732;-84.532;2024-03-02T12:27:53;1.60;;;1.42;;
40753;SDS011;26460;42.732;-84.532;2024-03-02T12:30:22;2.60;;;1.50;;
40753;SDS011;26460;42.732;-84.532;2024-03-02T12:32:49;1.65;;;1.42;;
40753;SDS011;26460;42.732;-84.532;2024-03-02T12:35:17;3.03;;;1.48;;
40753;SDS011;26460;42.732;-84.532;2024-03-02T12:37:44;2.20;;;1.55;;
40753;SDS011;26460;42.732;-84.532;2024-03-02T12:40:13;2.08;;;1.20;;
40753;SDS011;26460;42.732;-84.532;2024-03-02T12:42:40;1.85;;;1.65;;
40753;SDS011;26460;42.732;-84.532;2024-03-02T12:47:39;2.25;;;1.48;;
40753;SDS011;26460;42.732;-84.532;2024-03-02T12:50:07;1.50;;;1.40;;
40753;SDS011;26460;42.732;-84.532;2024-03-02T12:52:34;1.88;;;1.67;;
40753;SDS011;26460;42.732;-84.532;2024-03-02T12:55:02;1.55;;;1.40;;
40753;SDS011;26460;42.732;-84.532;2024-03-02T12:57:31;1.98;;;1.42;;
40753;SDS011;26460;42.732;-84.532;2024-03-02T12:59:59;2.20;;;1.60;;
40753;SDS011;26460;42.732;-84.532;2024-03-02T13:02:30;2.15;;;1.45;;
40753;SDS011;26460;42.732;-84.532;2024-03-02T13:05:00;1.73;;;1.38;;
40753;SDS011;26460;42.732;-84.532;2024-03-02T13:07:26;2.33;;;1.67;;
40753;SDS011;26460;42.732;-84.532;2024-03-02T13:09:53;1.63;;;1.45;;
40753;SDS011;26460;42.732;-84.532;2024-03-02T13:12:21;2.00;;;1.40;;
40753;SDS011;26460;42.732;-84.532;2024-03-02T13:14:53;2.90;;;1.77;;
40753;SDS011;26460;42.732;-84.532;2024-03-02T13:17:20;1.92;;;1.70;;
40753;SDS011;26460;42.732;-84.532;2024-03-02T13:20:05;1.90;;;1.48;;
40753;SDS011;26460;42.732;-84.532;2024-03-02T13:22:36;3.13;;;1.73;;
40753;SDS011;26460;42.732;-84.532;2024-03-02T13:25:02;1.48;;;1.20;;
40753;SDS011;26460;42.732;-84.532;2024-03-02T13:27:30;2.22;;;1.70;;
40753;SDS011;26460;42.732;-84.532;2024-03-02T13:30:00;2.05;;;1.67;;
40753;SDS011;26460;42.732;-84.532;2024-03-02T13:32:28;2.72;;;1.67;;
40753;SDS011;26460;42.732;-84.532;2024-03-02T13:34:55;2.05;;;1.60;;
40753;SDS011;26460;42.732;-84.532;2024-03-02T13:37:21;2.78;;;1.80;;
40753;SDS011;26460;42.732;-84.532;2024-03-02T13:39:49;1.55;;;1.45;;
40753;SDS011;26460;42.732;-84.532;2024-03-02T13:42:15;2.92;;;1.90;;
40753;SDS011;26460;42.732;-84.532;2024-03-02T13:44:45;1.92;;;1.70;;
40753;SDS011;26460;42.732;-84.532;2024-03-02T13:47:14;1.73;;;1.52;;
40753;SDS011;26460;42.732;-84.532;2024-03-02T13:49:41;3.17;;;1.75;;
40753;SDS011;26460;42.732;-84.532;2024-03-02T13:52:12;2.50;;;1.55;;
40753;SDS011;26460;42.732;-84.532;2024-03-02T13:54:46;2.80;;;1.90;;
40753;SDS011;26460;42.732;-84.532;2024-03-02T13:57:13;2.78;;;1.67;;
40753;SDS011;26460;42.732;-84.532;2024-03-02T13:59:41;2.53;;;1.85;;
40753;SDS011;26460;42.732;-84.532;2024-03-02T14:02:09;2.80;;;1.80;;
40753;SDS011;26460;42.732;-84.532;2024-03-02T14:04:36;3.65;;;1.75;;
40753;SDS011;26460;42.732;-84.532;2024-03-02T14:07:04;1.92;;;1.58;;
40753;SDS011;26460;42.732;-84.532;2024-03-02T14:09:34;3.08;;;2.03;;
40753;SDS011;26460;42.732;-84.532;2024-03-02T14:12:01;2.33;;;1.90;;
40753;SDS011;26460;42.732;-84.532;2024-03-02T14:14:29;4.27;;;2.20;;
40753;SDS011;26460;42.732;-84.532;2024-03-02T14:16:56;3.35;;;1.90;;
40753;SDS011;26460;42.732;-84.532;2024-03-02T14:19:26;2.25;;;1.80;;
40753;SDS011;26460;42.732;-84.532;2024-03-02T14:21:53;1.80;;;1.60;;
40753;SDS011;26460;42.732;-84.532;2024-03-02T14:24:19;2.25;;;1.90;;
40753;SDS011;26460;42.732;-84.532;2024-03-02T14:26:49;2.03;;;1.83;;
40753;SDS011;26460;42.732;-84.532;2024-03-02T14:29:16;2.10;;;1.80;;
40753;SDS011;26460;42.732;-84.532;2024-03-02T14:31:42;2.53;;;1.85;;
40753;SDS011;26460;42.732;-84.532;2024-03-02T14:34:09;2.70;;;2.00;;
40753;SDS011;26460;42.732;-84.532;2024-03-02T14:36:36;3.47;;;2.40;;
40753;SDS011;26460;42.732;-84.532;2024-03-02T14:39:02;3.65;;;2.00;;
40753;SDS011;26460;42.732;-84.532;2024-03-02T14:41:29;3.85;;;2.20;;
40753;SDS011;26460;42.732;-84.532;2024-03-02T14:43:56;2.97;;;2.17;;